Pocklington, United Kingdom
Current Conditions -  °F | °C
As of 1:50 AM on Monday 22 Dec 2014 (Local Time) from EGXV Reporting Station
Overcast Overcast  
Wind Chill: 57°   Ceiling: 2500
Heat Index: 57°   Visibility: NA
Dew Point: 48°   Wind: 21mph
Humidity: 72%   Direction: 240°WSW
Pressure: 29.8"   Gusts: 36mph
Location:  53.93°N, 0.78°W
Report Text: EGXV 220150Z AUTO 24018G31KT //// OVC025/// 14/09 Q1009
Loading
Personal Weather Stations






























Interactive Weather Map New forecast layout! Learn more

10-Day Weather Forecast

Advertisements
Track Severe Weather on mobile